createdAt,value
2022-11-10T00:00:00.311Z,13.14
2022-11-10T00:02:28.092Z,13.12
2022-11-10T00:04:55.896Z,13.05
2022-11-10T00:07:25.634Z,13.01
2022-11-10T00:09:55.436Z,13.09
2022-11-10T00:12:23.703Z,13.12
2022-11-10T00:15:08.983Z,13.06
2022-11-10T00:17:37.826Z,13.08
2022-11-10T00:20:06.894Z,13.11
2022-11-10T00:22:35.648Z,13.10
2022-11-10T00:25:05.605Z,13.12
2022-11-10T00:27:33.888Z,13.12
2022-11-10T00:30:01.997Z,12.99
2022-11-10T00:32:29.676Z,12.95
2022-11-10T00:34:57.383Z,12.96
2022-11-10T00:37:25.105Z,12.99
2022-11-10T00:39:52.852Z,12.98
2022-11-10T00:42:21.925Z,13.06
2022-11-10T00:44:49.771Z,13.05
2022-11-10T00:47:17.705Z,13.02
2022-11-10T00:49:45.519Z,13.00
2022-11-10T00:52:13.877Z,12.96
2022-11-10T00:54:41.608Z,12.94
2022-11-10T00:57:09.300Z,12.94
2022-11-10T00:59:38.338Z,12.89
2022-11-10T01:02:06.054Z,12.94
2022-11-10T01:04:33.973Z,12.91
2022-11-10T01:07:01.808Z,12.86
2022-11-10T01:09:30.060Z,12.87
2022-11-10T01:11:57.987Z,12.87
2022-11-10T01:14:25.772Z,12.91
2022-11-10T01:16:55.053Z,12.90
2022-11-10T01:19:22.794Z,12.94
2022-11-10T01:21:52.015Z,12.89
2022-11-10T01:24:22.555Z,12.83
2022-11-10T01:26:50.894Z,12.80
2022-11-10T01:29:18.743Z,12.80
2022-11-10T01:31:46.554Z,12.82
2022-11-10T01:34:17.209Z,12.68
2022-11-10T01:36:44.917Z,12.62
2022-11-10T01:39:12.952Z,12.60
2022-11-10T01:41:40.794Z,12.58
2022-11-10T01:44:17.249Z,12.55
2022-11-10T01:46:45.131Z,12.60
2022-11-10T01:49:14.420Z,12.64
2022-11-10T01:51:50.105Z,12.63
2022-11-10T01:54:23.101Z,12.53
2022-11-10T01:56:54.344Z,12.43
2022-11-10T01:59:26.604Z,12.47
2022-11-10T02:01:59.427Z,12.39
2022-11-10T02:04:28.107Z,12.29
2022-11-10T02:06:57.815Z,12.26
2022-11-10T02:09:26.354Z,12.30
2022-11-10T02:11:56.543Z,12.40
2022-11-10T02:14:24.385Z,12.44
2022-11-10T02:16:52.420Z,12.42
2022-11-10T02:19:23.502Z,12.41
2022-11-10T02:21:52.913Z,12.35
2022-11-10T02:24:20.783Z,12.26
2022-11-10T02:26:54.848Z,12.30
2022-11-10T02:29:23.673Z,12.33
2022-11-10T02:31:51.345Z,12.31
2022-11-10T02:34:19.175Z,12.25
2022-11-10T02:36:46.920Z,12.20
2022-11-10T02:39:16.087Z,12.23
2022-11-10T02:41:43.799Z,12.27
2022-11-10T02:44:11.545Z,12.25
2022-11-10T02:46:39.234Z,12.29
2022-11-10T02:49:07.996Z,12.26
2022-11-10T02:51:35.716Z,12.27
2022-11-10T02:54:03.779Z,12.29
2022-11-10T02:56:35.334Z,12.26
2022-11-10T02:59:03.300Z,12.27
2022-11-10T03:01:32.327Z,12.24
2022-11-10T03:04:00.148Z,12.10
2022-11-10T03:06:27.874Z,12.14
2022-11-10T03:08:55.892Z,12.07
2022-11-10T03:11:26.826Z,12.12
2022-11-10T03:14:02.081Z,12.15
2022-11-10T03:16:30.493Z,12.13
2022-11-10T03:18:58.736Z,12.11
2022-11-10T03:21:26.427Z,12.09
2022-11-10T03:23:54.149Z,12.07
2022-11-10T03:26:23.007Z,12.03
2022-11-10T03:28:50.782Z,12.04
2022-11-10T03:31:20.030Z,11.98
2022-11-10T03:33:47.766Z,12.00
2022-11-10T03:36:15.483Z,11.98
2022-11-10T03:38:43.204Z,11.97
2022-11-10T03:41:20.036Z,11.98
2022-11-10T03:43:48.375Z,11.98
2022-11-10T03:46:16.271Z,11.90
2022-11-10T03:48:51.792Z,11.89
2022-11-10T03:51:20.883Z,11.92
2022-11-10T03:53:48.608Z,11.85
2022-11-10T03:56:16.470Z,11.83
2022-11-10T03:58:44.153Z,11.84
2022-11-10T04:01:11.875Z,11.87
2022-11-10T04:03:39.653Z,11.85
2022-11-10T04:06:29.524Z,11.83
2022-11-10T04:09:00.360Z,11.84
2022-11-10T04:11:47.971Z,11.86
2022-11-10T04:14:33.687Z,11.87
2022-11-10T04:17:01.442Z,11.87
2022-11-10T04:19:29.994Z,11.87
2022-11-10T04:21:59.192Z,11.80
2022-11-10T04:24:27.011Z,11.74
2022-11-10T04:26:54.997Z,11.74
2022-11-10T04:29:22.754Z,11.71
2022-11-10T04:31:50.507Z,11.74
2022-11-10T04:34:18.192Z,11.73
2022-11-10T04:36:46.080Z,11.76
2022-11-10T04:39:15.165Z,11.74
2022-11-10T04:41:43.007Z,11.67
2022-11-10T04:44:10.809Z,11.65
2022-11-10T04:46:39.885Z,11.69
2022-11-10T04:49:08.680Z,11.66
2022-11-10T04:51:38.223Z,11.65
2022-11-10T04:54:07.393Z,11.65
2022-11-10T04:56:37.076Z,11.66
2022-11-10T04:59:05.001Z,11.66
2022-11-10T05:01:32.798Z,11.67
2022-11-10T05:04:01.036Z,11.64
2022-11-10T05:06:29.061Z,11.69
2022-11-10T05:08:56.827Z,11.66
2022-11-10T05:11:24.542Z,11.68
2022-11-10T05:13:53.647Z,11.65
2022-11-10T05:16:23.450Z,11.63
2022-11-10T05:18:54.173Z,11.61
2022-11-10T05:21:22.218Z,11.66
2022-11-10T05:23:50.000Z,11.62
2022-11-10T05:26:21.597Z,11.58
2022-11-10T05:28:49.357Z,11.60
2022-11-10T05:31:18.421Z,11.59
2022-11-10T05:33:46.196Z,11.58
2022-11-10T05:36:13.945Z,11.63
2022-11-10T05:38:43.758Z,11.61
2022-11-10T05:41:12.544Z,11.56
2022-11-10T05:43:40.902Z,11.52
2022-11-10T05:46:08.663Z,11.46
2022-11-10T05:48:37.715Z,11.48
2022-11-10T05:51:05.715Z,11.50
2022-11-10T05:53:33.471Z,11.63
2022-11-10T05:56:01.295Z,11.70
2022-11-10T05:58:29.054Z,11.77
2022-11-10T06:00:58.837Z,11.81
2022-11-10T06:03:26.877Z,11.82
2022-11-10T06:05:56.989Z,11.79
2022-11-10T06:08:25.040Z,11.84
2022-11-10T06:10:53.628Z,11.84
2022-11-10T06:13:21.771Z,11.79
2022-11-10T06:15:50.698Z,11.76
2022-11-10T06:18:18.705Z,11.63
2022-11-10T06:20:47.489Z,11.69
2022-11-10T06:23:17.037Z,11.65
2022-11-10T06:25:45.598Z,11.66
2022-11-10T06:28:14.682Z,11.65
2022-11-10T06:30:42.503Z,11.62
2022-11-10T06:33:10.912Z,11.65
2022-11-10T06:35:38.817Z,11.60
2022-11-10T06:38:08.650Z,11.58
2022-11-10T06:40:37.788Z,11.54
2022-11-10T06:43:05.559Z,11.58
2022-11-10T06:45:33.233Z,11.57
2022-11-10T06:48:02.428Z,11.57
2022-11-10T06:50:30.670Z,11.58
2022-11-10T06:53:00.344Z,11.58
2022-11-10T06:55:28.588Z,11.61
2022-11-10T06:57:58.004Z,11.60
2022-11-10T07:00:26.623Z,11.57
2022-11-10T07:03:02.216Z,11.52
2022-11-10T07:05:30.782Z,11.58
2022-11-10T07:08:02.913Z,11.55
2022-11-10T07:10:30.592Z,11.46
2022-11-10T07:13:00.136Z,11.48
2022-11-10T07:15:27.995Z,11.54
2022-11-10T07:17:56.078Z,11.58
2022-11-10T07:20:23.919Z,11.64
2022-11-10T07:22:58.065Z,11.57
2022-11-10T07:25:25.990Z,11.58
2022-11-10T07:27:57.449Z,11.58
2022-11-10T07:30:27.686Z,11.62
2022-11-10T07:32:59.929Z,11.72
2022-11-10T07:35:28.414Z,11.76
2022-11-10T07:37:56.362Z,11.77
2022-11-10T07:40:24.469Z,11.71
2022-11-10T07:42:52.308Z,11.79
2022-11-10T07:45:20.157Z,11.80
2022-11-10T07:47:50.175Z,11.81
2022-11-10T07:50:18.211Z,11.81
2022-11-10T07:52:46.088Z,11.84
2022-11-10T07:55:13.866Z,11.87
2022-11-10T07:57:43.818Z,11.77
2022-11-10T08:00:13.485Z,11.76
2022-11-10T08:02:41.339Z,11.86
2022-11-10T08:05:10.818Z,11.95
2022-11-10T08:07:38.697Z,12.01
2022-11-10T08:10:07.469Z,12.01
2022-11-10T08:12:35.136Z,12.05
2022-11-10T08:15:02.818Z,12.11
2022-11-10T08:17:30.544Z,12.14
2022-11-10T08:19:58.259Z,12.11
2022-11-10T08:22:27.405Z,12.12
2022-11-10T08:24:55.099Z,12.25
2022-11-10T08:27:22.796Z,12.31
2022-11-10T08:29:50.889Z,12.27
2022-11-10T08:32:18.563Z,12.26
2022-11-10T08:34:46.332Z,12.25
2022-11-10T08:37:14.008Z,12.22
2022-11-10T08:39:43.398Z,12.22
2022-11-10T08:42:11.163Z,12.29
2022-11-10T08:44:39.020Z,12.30
2022-11-10T08:47:06.720Z,12.31
2022-11-10T08:49:34.415Z,12.23
2022-11-10T08:52:02.132Z,12.19
2022-11-10T08:54:30.078Z,12.14
2022-11-10T08:56:59.212Z,12.13
2022-11-10T08:59:26.879Z,12.21
2022-11-10T09:01:54.604Z,12.21
2022-11-10T09:04:22.425Z,12.22
2022-11-10T09:06:50.198Z,12.30
2022-11-10T09:09:17.951Z,12.36
2022-11-10T09:11:45.660Z,12.45
2022-11-10T09:14:14.716Z,12.58
2022-11-10T09:16:42.408Z,12.65
2022-11-10T09:19:12.291Z,12.69
2022-11-10T09:21:43.257Z,12.74
2022-11-10T09:24:11.818Z,12.73
2022-11-10T09:26:39.617Z,12.73
2022-11-10T09:29:07.276Z,12.72
2022-11-10T09:31:36.286Z,12.77
2022-11-10T09:34:04.617Z,12.81
2022-11-10T09:36:32.439Z,12.92
2022-11-10T09:39:00.087Z,12.89
2022-11-10T09:41:29.828Z,12.77
2022-11-10T09:44:05.190Z,12.80
2022-11-10T09:46:39.361Z,12.81
2022-11-10T09:49:21.557Z,12.81
2022-11-10T09:51:50.073Z,12.78
2022-11-10T09:54:31.765Z,12.80
2022-11-10T09:57:01.149Z,12.83
2022-11-10T09:59:32.167Z,12.80
2022-11-10T10:02:05.388Z,12.80
2022-11-10T10:05:04.487Z,12.83
2022-11-10T10:07:39.687Z,12.89
2022-11-10T10:10:17.529Z,13.00
2022-11-10T10:13:10.979Z,12.99
2022-11-10T10:15:50.545Z,13.04
2022-11-10T10:18:30.059Z,13.08
2022-11-10T10:21:18.341Z,13.06
2022-11-10T10:26:41.000Z,13.13
2022-11-10T10:29:11.485Z,13.25
2022-11-10T10:31:43.082Z,13.21
2022-11-10T10:34:17.624Z,13.28
2022-11-10T10:36:46.493Z,13.32
2022-11-10T10:39:17.436Z,13.37
2022-11-10T10:41:47.006Z,13.38
2022-11-10T10:44:16.824Z,13.42
2022-11-10T10:46:47.762Z,13.40
2022-11-10T10:49:28.467Z,13.44
2022-11-10T10:52:04.063Z,13.47
2022-11-10T10:54:33.549Z,13.48
2022-11-10T10:57:07.356Z,13.48
2022-11-10T10:59:35.541Z,13.49
2022-11-10T11:02:03.320Z,13.48
2022-11-10T11:04:35.425Z,13.48
2022-11-10T11:07:05.861Z,13.56
2022-11-10T11:09:41.837Z,13.55
2022-11-10T11:12:12.466Z,13.57
2022-11-10T11:14:44.811Z,13.62
2022-11-10T11:17:18.861Z,13.65
2022-11-10T11:19:58.513Z,13.71
2022-11-10T11:22:50.172Z,13.68
2022-11-10T11:25:27.165Z,13.72
2022-11-10T11:28:04.755Z,13.78
2022-11-10T11:30:46.771Z,13.79
2022-11-10T11:33:22.800Z,13.85
2022-11-10T11:35:59.416Z,13.91
2022-11-10T11:38:33.099Z,13.95
2022-11-10T11:41:12.386Z,14.03
2022-11-10T11:44:14.538Z,14.09
2022-11-10T11:46:49.440Z,14.22
2022-11-10T11:49:35.277Z,14.36
2022-11-10T11:52:12.125Z,14.35
2022-11-10T11:54:55.077Z,14.48
2022-11-10T11:57:40.003Z,14.37
2022-11-10T12:00:14.040Z,14.33
2022-11-10T12:03:11.854Z,14.33
2022-11-10T12:05:51.864Z,14.37
2022-11-10T12:08:30.647Z,14.42
2022-11-10T12:11:09.542Z,14.44
2022-11-10T12:13:51.839Z,14.43
2022-11-10T12:16:25.321Z,14.49
2022-11-10T12:19:03.426Z,14.62
2022-11-10T12:21:38.977Z,14.69
2022-11-10T12:24:21.858Z,14.82
2022-11-10T12:26:55.049Z,14.87
2022-11-10T12:29:30.549Z,15.06
2022-11-10T12:32:04.596Z,15.23
2022-11-10T12:34:40.588Z,15.21
2022-11-10T12:37:15.924Z,15.22
2022-11-10T12:39:54.808Z,15.15
2022-11-10T12:42:25.544Z,15.17
2022-11-10T12:45:00.679Z,15.29
2022-11-10T12:47:32.998Z,15.21
2022-11-10T12:50:20.740Z,15.22
2022-11-10T12:52:54.491Z,15.10
2022-11-10T12:55:34.357Z,15.07
2022-11-10T12:58:04.542Z,15.00
2022-11-10T13:00:39.158Z,14.96
2022-11-10T13:03:15.344Z,14.86
2022-11-10T13:05:56.351Z,14.89
2022-11-10T13:08:34.807Z,14.91
2022-11-10T13:11:09.448Z,14.83
2022-11-10T13:13:47.108Z,14.75
2022-11-10T13:16:52.071Z,14.72
2022-11-10T13:19:52.643Z,14.71
2022-11-10T13:22:37.769Z,14.72
2022-11-10T13:25:42.568Z,14.72
2022-11-10T13:28:13.790Z,14.67
2022-11-10T13:30:46.588Z,14.65
2022-11-10T13:33:37.166Z,14.57
2022-11-10T13:36:07.120Z,14.57
2022-11-10T13:38:38.485Z,14.59
2022-11-10T13:41:27.476Z,14.60
2022-11-10T13:43:58.787Z,14.62
2022-11-10T13:46:38.768Z,14.60
2022-11-10T13:49:28.380Z,14.59
2022-11-10T13:52:06.956Z,14.56
2022-11-10T13:54:53.823Z,14.59
2022-11-10T13:57:31.128Z,14.55
2022-11-10T14:00:02.688Z,14.56
2022-11-10T14:02:51.157Z,14.59
2022-11-10T14:06:03.364Z,14.57
2022-11-10T14:08:38.798Z,14.56
2022-11-10T14:11:14.352Z,14.56
2022-11-10T14:13:45.154Z,14.54
2022-11-10T14:16:19.732Z,14.53
2022-11-10T14:18:52.657Z,14.50
2022-11-10T14:21:29.895Z,14.43
2022-11-10T14:24:04.308Z,14.45
2022-11-10T14:26:36.281Z,14.46
2022-11-10T14:29:28.173Z,14.45
2022-11-10T14:31:58.068Z,14.45
2022-11-10T14:34:26.238Z,14.44
2022-11-10T14:36:56.090Z,14.46
2022-11-10T14:39:32.753Z,14.46
2022-11-10T14:42:03.317Z,14.39
2022-11-10T14:44:32.475Z,14.38
2022-11-10T14:47:16.010Z,14.38
2022-11-10T14:49:44.915Z,14.40
2022-11-10T14:52:15.500Z,14.37
2022-11-10T14:54:49.365Z,14.36
2022-11-10T14:57:19.597Z,14.33
2022-11-10T14:59:47.754Z,14.30
2022-11-10T15:02:19.940Z,14.32
2022-11-10T15:04:51.044Z,14.28
2022-11-10T15:07:19.847Z,14.29
2022-11-10T15:10:06.920Z,14.25
2022-11-10T15:12:38.182Z,14.26
2022-11-10T15:15:20.295Z,14.23
2022-11-10T15:17:51.277Z,14.22
2022-11-10T15:20:37.236Z,14.21
2022-11-10T15:23:13.377Z,14.16
2022-11-10T15:25:42.158Z,14.15
2022-11-10T15:28:24.122Z,14.16
2022-11-10T15:30:55.043Z,14.13
2022-11-10T15:33:27.245Z,14.15
2022-11-10T15:35:56.267Z,14.18
2022-11-10T15:38:32.500Z,14.15
2022-11-10T15:41:12.678Z,14.12
2022-11-10T15:43:40.616Z,14.12
2022-11-10T15:46:18.100Z,14.06
2022-11-10T15:48:49.944Z,14.03
2022-11-10T15:51:24.692Z,14.03
2022-11-10T15:53:56.526Z,13.96
2022-11-10T15:56:25.731Z,13.97
2022-11-10T15:59:00.644Z,13.98
2022-11-10T16:01:29.936Z,13.99
2022-11-10T16:03:59.343Z,13.97
2022-11-10T16:06:27.434Z,13.97
2022-11-10T16:08:55.390Z,13.96
2022-11-10T16:11:24.603Z,13.88
2022-11-10T16:13:53.659Z,13.90
2022-11-10T16:16:23.809Z,13.86
2022-11-10T16:18:54.420Z,13.80
2022-11-10T16:21:25.564Z,13.78
2022-11-10T16:23:53.987Z,13.75
2022-11-10T16:26:24.592Z,13.76
2022-11-10T16:28:52.379Z,13.75
2022-11-10T16:31:22.377Z,13.72
2022-11-10T16:33:50.718Z,13.74
2022-11-10T16:36:25.553Z,13.67
2022-11-10T16:38:54.413Z,13.71
2022-11-10T16:41:22.751Z,13.68
2022-11-10T16:43:50.688Z,13.69
2022-11-10T16:46:22.606Z,13.65
2022-11-10T16:48:52.300Z,13.63
2022-11-10T16:51:27.771Z,13.62
2022-11-10T16:53:59.357Z,13.58
2022-11-10T16:56:27.308Z,13.49
2022-11-10T16:58:55.937Z,13.46
2022-11-10T17:01:28.571Z,13.47
2022-11-10T17:03:59.589Z,13.46
2022-11-10T17:06:32.473Z,13.46
2022-11-10T17:09:07.737Z,13.48
2022-11-10T17:11:36.213Z,13.52
2022-11-10T17:14:04.263Z,13.50
2022-11-10T17:16:34.683Z,13.49
2022-11-10T17:19:04.773Z,13.47
2022-11-10T17:21:35.173Z,13.44
2022-11-10T17:24:05.671Z,13.40
2022-11-10T17:26:35.221Z,13.36
2022-11-10T17:29:03.098Z,13.29
2022-11-10T17:31:31.382Z,13.35
2022-11-10T17:33:59.427Z,13.45
2022-11-10T17:36:27.331Z,13.49
2022-11-10T17:38:55.447Z,13.52
2022-11-10T17:41:24.525Z,13.49
2022-11-10T17:43:52.370Z,13.40
2022-11-10T17:46:20.172Z,13.33
2022-11-10T17:48:48.079Z,13.30
2022-11-10T17:51:19.983Z,13.30
2022-11-10T17:53:48.226Z,13.30
2022-11-10T17:56:16.282Z,13.28
2022-11-10T17:58:45.397Z,13.31
2022-11-10T18:01:17.139Z,13.30
2022-11-10T18:03:45.780Z,13.28
2022-11-10T18:06:14.941Z,13.30
2022-11-10T18:08:43.536Z,13.31
2022-11-10T18:11:12.923Z,13.33
2022-11-10T18:13:42.263Z,13.37
2022-11-10T18:16:12.731Z,13.29
2022-11-10T18:18:41.749Z,13.31
2022-11-10T18:21:10.991Z,13.23
2022-11-10T18:23:38.789Z,13.23
2022-11-10T18:26:08.097Z,13.13
2022-11-10T18:28:36.668Z,13.14
2022-11-10T18:31:07.927Z,13.19
2022-11-10T18:33:37.837Z,13.13
2022-11-10T18:36:06.361Z,13.13
2022-11-10T18:38:34.270Z,13.16
2022-11-10T18:41:24.563Z,13.13
2022-11-10T18:43:52.408Z,13.12
2022-11-10T18:46:21.403Z,13.05
2022-11-10T18:48:50.549Z,13.05
2022-11-10T18:51:18.272Z,13.07
2022-11-10T18:53:46.009Z,13.00
2022-11-10T18:56:14.319Z,13.03
2022-11-10T18:58:42.564Z,13.06
2022-11-10T19:01:11.679Z,12.98
2022-11-10T19:03:39.650Z,12.99
2022-11-10T19:06:09.488Z,12.99
2022-11-10T19:08:37.406Z,12.92
2022-11-10T19:11:07.279Z,12.89
2022-11-10T19:13:35.348Z,12.89
2022-11-10T19:16:05.139Z,12.86
2022-11-10T19:18:32.878Z,12.85
2022-11-10T19:21:05.441Z,12.83
2022-11-10T19:23:35.287Z,12.88
2022-11-10T19:26:03.615Z,12.87
2022-11-10T19:28:31.373Z,12.82
2022-11-10T19:31:02.513Z,12.75
2022-11-10T19:33:31.667Z,12.71
2022-11-10T19:36:03.173Z,12.58
2022-11-10T19:38:31.263Z,12.61
2022-11-10T19:41:04.867Z,12.58
2022-11-10T19:43:32.920Z,12.54
2022-11-10T19:46:09.506Z,12.59
2022-11-10T19:48:47.126Z,12.55
2022-11-10T19:51:16.951Z,12.57
2022-11-10T19:53:46.290Z,12.57
2022-11-10T19:56:20.017Z,12.70
2022-11-10T19:58:48.975Z,12.72
2022-11-10T20:01:18.378Z,12.71
2022-11-10T20:03:46.399Z,12.66
2022-11-10T20:06:16.262Z,12.62
2022-11-10T20:08:44.983Z,12.62
2022-11-10T20:11:15.963Z,12.65
2022-11-10T20:13:43.852Z,12.60
2022-11-10T20:16:13.198Z,12.60
2022-11-10T20:18:41.593Z,12.71
2022-11-10T20:21:11.483Z,12.73
2022-11-10T20:23:39.986Z,12.77
2022-11-10T20:26:09.927Z,12.75
2022-11-10T20:28:39.906Z,12.68
2022-11-10T20:31:10.305Z,12.63
2022-11-10T20:33:39.120Z,12.52
2022-11-10T20:36:09.073Z,12.54
2022-11-10T20:38:37.348Z,12.62
2022-11-10T20:41:06.585Z,12.65
2022-11-10T20:43:35.708Z,12.62
2022-11-10T20:46:06.106Z,12.49
2022-11-10T20:48:34.960Z,12.45
2022-11-10T20:51:08.424Z,12.46
2022-11-10T20:53:36.175Z,12.41
2022-11-10T20:56:04.901Z,12.43
2022-11-10T20:58:32.632Z,12.40
2022-11-10T21:01:02.616Z,12.48
2022-11-10T21:03:32.553Z,12.35
2022-11-10T21:06:01.351Z,12.34
2022-11-10T21:08:29.557Z,12.32
2022-11-10T21:10:59.170Z,12.22
2022-11-10T21:13:28.028Z,12.26
2022-11-10T21:15:59.762Z,12.25
2022-11-10T21:18:30.044Z,12.30
2022-11-10T21:20:59.079Z,12.28
2022-11-10T21:23:26.834Z,12.18
2022-11-10T21:25:55.174Z,12.18
2022-11-10T21:28:23.371Z,12.18
2022-11-10T21:30:51.616Z,12.22
2022-11-10T21:33:19.923Z,12.20
2022-11-10T21:35:47.826Z,12.20
2022-11-10T21:38:16.970Z,12.19
2022-11-10T21:40:44.651Z,12.15
2022-11-10T21:43:15.275Z,12.17
2022-11-10T21:45:43.009Z,12.16
2022-11-10T21:48:10.780Z,12.09
2022-11-10T21:50:38.485Z,12.12
2022-11-10T21:53:07.855Z,12.15
2022-11-10T21:55:36.867Z,12.24
2022-11-10T21:58:04.616Z,12.22
2022-11-10T22:00:32.365Z,12.24
2022-11-10T22:03:00.218Z,12.19
2022-11-10T22:05:28.153Z,12.20
2022-11-10T22:07:56.044Z,12.19
2022-11-10T22:10:41.654Z,12.23
2022-11-10T22:13:34.204Z,12.21
2022-11-10T22:16:19.873Z,12.16
2022-11-10T22:18:47.936Z,12.09
2022-11-10T22:21:15.585Z,12.04
2022-11-10T22:24:00.984Z,12.07
2022-11-10T22:26:28.714Z,12.12
2022-11-10T22:28:57.807Z,12.04
2022-11-10T22:31:25.544Z,11.97
2022-11-10T22:33:53.289Z,11.92
2022-11-10T22:36:21.695Z,11.99
2022-11-10T22:38:49.624Z,12.04
2022-11-10T22:41:35.388Z,12.06
2022-11-10T22:44:07.822Z,11.98
2022-11-10T22:46:37.917Z,11.98
2022-11-10T22:49:07.841Z,11.95
2022-11-10T22:51:37.385Z,11.92
2022-11-10T22:54:06.676Z,11.92
2022-11-10T22:56:34.557Z,11.90
2022-11-10T22:59:03.877Z,11.90
2022-11-10T23:01:32.106Z,11.90
2022-11-10T23:04:00.152Z,11.90
2022-11-10T23:06:28.196Z,11.84
2022-11-10T23:08:56.413Z,11.82
2022-11-10T23:11:26.272Z,11.83
2022-11-10T23:13:54.114Z,11.81
2022-11-10T23:16:25.653Z,11.79
2022-11-10T23:18:54.637Z,11.76
2022-11-10T23:21:24.658Z,11.75
2022-11-10T23:23:53.436Z,11.75
2022-11-10T23:26:23.386Z,11.72
2022-11-10T23:28:52.103Z,11.69
2022-11-10T23:31:21.605Z,11.65
2022-11-10T23:33:52.115Z,11.70
2022-11-10T23:36:21.288Z,11.61
2022-11-10T23:38:49.226Z,11.61
2022-11-10T23:41:19.102Z,11.59
2022-11-10T23:43:47.376Z,11.60
2022-11-10T23:46:15.443Z,11.63
2022-11-10T23:48:43.509Z,11.65
2022-11-10T23:51:14.730Z,11.67
2022-11-10T23:53:42.946Z,11.73
2022-11-10T23:56:12.877Z,11.77
2022-11-10T23:58:40.849Z,11.78
